Time;durP1;ratioP1;P1;durP2;ratioP2;P2;SDS_P1;SDS_P2;PMS_P1;PMS_P2;Temp;Humidity;BMP_temperature;BMP_pressure;BME280_temperature;BME280_humidity;BME280_pressure;Samples;Min_cycle;Max_cycle;Signal;HPM_P1;HPM_P2
2021/03/10 00:02:02;;;;;;;19.23;14.57;;;;;;;3.73;100.00;89068.06;5014103;28;20693;-88
2021/03/10 00:04:31;;;;;;;18.73;13.83;;;;;;;3.81;100.00;89026.63;5013833;28;20250;-88
2021/03/10 00:06:58;;;;;;;15.80;14.00;;;;;;;3.84;100.00;89008.91;5014213;28;20551;-88
2021/03/10 00:09:25;;;;;;;16.80;15.00;;;;;;;3.79;100.00;88992.41;5013992;28;20277;-87
2021/03/10 00:11:51;;;;;;;15.20;13.60;;;;;;;3.77;100.00;88988.56;5013884;28;20223;-88
2021/03/10 00:14:19;;;;;;;13.27;10.90;;;;;;;3.64;100.00;88933.09;5013664;28;20207;-87
2021/03/10 00:16:46;;;;;;;20.37;14.50;;;;;;;3.75;100.00;88840.22;5013571;28;20206;-88
2021/03/10 00:19:13;;;;;;;14.87;13.33;;;;;;;3.76;100.00;88789.84;5013994;28;20201;-88
2021/03/10 00:21:40;;;;;;;17.53;13.47;;;;;;;3.71;100.00;88769.22;5014038;28;20634;-88
2021/03/10 00:24:09;;;;;;;17.63;13.43;;;;;;;3.72;100.00;88682.53;5013596;28;20201;-88
2021/03/10 00:26:36;;;;;;;17.40;14.97;;;;;;;3.65;100.00;88620.72;5013194;28;20236;-88
2021/03/10 00:29:04;;;;;;;17.13;14.60;;;;;;;3.70;100.00;88531.59;5013397;28;20195;-88
2021/03/10 00:31:31;;;;;;;13.73;11.80;;;;;;;3.68;100.00;88474.06;5013336;28;20307;-88
2021/03/10 00:33:58;;;;;;;16.73;13.57;;;;;;;3.68;100.00;88378.09;5013314;28;20290;-88
2021/03/10 00:36:25;;;;;;;19.77;15.57;;;;;;;3.73;100.00;88266.34;5013254;28;20286;-88
2021/03/10 00:38:52;;;;;;;18.83;14.87;;;;;;;3.66;100.00;88157.88;5013007;28;20195;-87
2021/03/10 00:41:19;;;;;;;16.87;15.00;;;;;;;3.72;100.00;88041.72;5013196;28;20254;-88
2021/03/10 00:43:45;;;;;;;17.77;14.67;;;;;;;3.64;100.00;88003.63;5013090;28;20230;-88
2021/03/10 00:46:12;;;;;;;19.13;14.67;;;;;;;3.77;100.00;87904.03;5013276;28;20286;-88
2021/03/10 00:48:41;;;;;;;21.23;15.00;;;;;;;3.79;100.00;87845.56;5013575;28;20202;-88
2021/03/10 00:51:08;;;;;;;17.17;13.23;;;;;;;3.67;100.00;87834.41;5013297;28;20203;-88
2021/03/10 00:53:35;;;;;;;21.17;15.83;;;;;;;3.79;100.00;87738.44;5012974;28;20230;-88
2021/03/10 00:56:01;;;;;;;17.03;14.43;;;;;;;3.69;100.00;87674.78;5012849;28;20606;-88
2021/03/10 00:58:28;;;;;;;17.27;15.03;;;;;;;3.75;100.00;87589.72;5013001;28;20294;-87
2021/03/10 01:00:55;;;;;;;17.87;15.60;;;;;;;3.78;100.00;87511.25;5013064;28;20286;-88
2021/03/10 01:03:22;;;;;;;16.60;14.87;;;;;;;3.79;100.00;87422.69;5012810;28;20196;-87
2021/03/10 01:05:50;;;;;;;17.73;15.83;;;;;;;3.73;100.00;87418.09;5012926;28;20242;-88
2021/03/10 01:08:17;;;;;;;19.53;15.67;;;;;;;3.73;100.00;87379.19;5012871;28;20206;-88
2021/03/10 01:10:46;;;;;;;22.33;15.97;;;;;;;3.78;100.00;87308.91;5013264;28;20225;-88
2021/03/10 01:13:13;;;;;;;17.77;14.60;;;;;;;3.70;100.00;87255.38;5012789;28;20227;-88
2021/03/10 01:15:39;;;;;;;16.47;14.00;;;;;;;3.73;100.00;87202.81;5013448;28;20203;-88
2021/03/10 01:18:06;;;;;;;15.30;13.67;;;;;;;3.72;100.00;87133.91;5013087;28;20250;-88
2021/03/10 01:20:33;;;;;;;15.90;13.63;;;;;;;3.72;100.00;87092.41;5012905;28;20206;-87
2021/03/10 01:23:01;;;;;;;15.93;13.53;;;;;;;3.68;100.00;87050.09;5012706;28;20249;-88
2021/03/10 01:25:30;;;;;;;16.47;13.83;;;;;;;3.59;100.00;86990.66;5012774;28;20249;-88
2021/03/10 01:27:57;;;;;;;19.63;15.13;;;;;;;3.56;100.00;86883.19;5012523;28;20238;-88
2021/03/10 01:30:24;;;;;;;16.37;14.67;;;;;;;3.63;100.00;86752.16;5013039;28;20221;-88
2021/03/10 01:32:51;;;;;;;19.87;14.57;;;;;;;3.61;100.00;86677.31;5012893;28;20262;-88
2021/03/10 01:35:19;;;;;;;19.13;14.97;;;;;;;3.62;100.00;86614.00;5012910;28;20732;-88
2021/03/10 01:37:46;;;;;;;18.47;14.80;;;;;;;3.60;100.00;86577.28;5015688;28;20336;-89
2021/03/10 01:40:16;;;;;;;18.30;14.40;;;;;;;3.53;100.00;86515.75;5032317;28;20235;-90
2021/03/10 01:42:44;;;;;;;26.20;15.50;;;;;;;3.55;100.00;86459.09;5031663;28;20280;-89
2021/03/10 01:45:13;;;;;;;17.83;15.17;;;;;;;3.56;100.00;86398.38;5032220;28;20209;-90
2021/03/10 01:47:42;;;;;;;17.40;13.13;;;;;;;3.56;100.00;86346.53;5032922;28;20203;-90
2021/03/10 01:50:10;;;;;;;18.57;15.23;;;;;;;3.52;100.00;86273.19;5032217;28;20199;-88
2021/03/10 01:52:37;;;;;;;19.47;14.23;;;;;;;3.50;100.00;86209.84;5031987;28;20305;-88
2021/03/10 01:55:11;;;;;;;17.20;13.83;;;;;;;3.54;100.00;86132.84;5032065;28;20294;-87
2021/03/10 01:57:39;;;;;;;23.20;15.60;;;;;;;3.48;100.00;86070.25;5031910;28;20214;-85
2021/03/10 02:00:08;;;;;;;20.13;14.83;;;;;;;3.52;100.00;85974.34;5032292;28;20627;-90
2021/03/10 02:02:35;;;;;;;22.23;16.23;;;;;;;3.51;100.00;85949.53;5032023;28;20241;-87
2021/03/10 02:05:03;;;;;;;18.13;15.07;;;;;;;3.44;100.00;85887.34;5032478;28;20273;-87
2021/03/10 02:07:38;;;;;;;24.53;14.50;;;;;;;3.56;100.00;85763.28;5031727;28;20282;-90
2021/03/10 02:10:13;;;;;;;18.57;15.53;;;;;;;3.51;100.00;85768.84;5035416;28;20190;-87
2021/03/10 02:13:00;;;;;;;17.33;15.03;;;;;;;3.49;100.00;85729.59;5035778;28;20248;-87
2021/03/10 02:15:35;;;;;;;17.77;14.87;;;;;;;3.53;100.00;85714.81;5034694;28;20213;-88
2021/03/10 02:18:05;;;;;;;19.13;15.17;;;;;;;3.35;100.00;85778.88;5035425;28;20631;-87
2021/03/10 02:20:35;;;;;;;20.97;15.53;;;;;;;3.40;100.00;85731.13;5035644;28;20580;-87
2021/03/10 02:23:45;;;;;;;20.40;14.93;;;;;;;3.34;100.00;85687.44;5035733;28;20241;-89
2021/03/10 02:26:33;;;;;;;21.07;14.43;;;;;;;3.47;100.00;85500.47;5031450;28;20784;-88
2021/03/10 02:29:04;;;;;;;16.77;13.67;;;;;;;3.46;100.00;85509.34;5035175;28;20325;-87
2021/03/10 02:31:35;;;;;;;18.07;13.53;;;;;;;3.48;100.00;85509.69;5035456;28;20540;-87
2021/03/10 02:34:03;;;;;;;15.90;13.03;;;;;;;3.47;100.00;85523.78;5035462;28;20694;-88
2021/03/10 02:36:31;;;;;;;17.87;15.87;;;;;;;3.51;100.00;85504.50;5035455;28;20281;-87
2021/03/10 02:39:01;;;;;;;21.43;16.77;;;;;;;3.41;100.00;85546.75;5035100;28;20286;-88
2021/03/10 02:41:31;;;;;;;25.30;17.27;;;;;;;3.39;100.00;85543.06;5035351;28;20661;-89
2021/03/10 02:44:12;;;;;;;18.43;13.83;;;;;;;3.40;100.00;85485.69;5034893;28;20198;-88
2021/03/10 02:46:40;;;;;;;20.27;14.20;;;;;;;3.36;100.00;85481.63;5034925;28;20734;-88
2021/03/10 02:49:07;;;;;;;22.77;17.33;;;;;;;3.40;100.00;85453.88;5034833;28;20308;-88
2021/03/10 02:51:35;;;;;;;23.53;15.40;;;;;;;3.43;100.00;85437.53;5034874;28;20198;-88
2021/03/10 02:54:04;;;;;;;24.17;16.13;;;;;;;3.46;100.00;85390.13;5035020;28;20215;-88
2021/03/10 02:56:31;;;;;;;26.17;15.80;;;;;;;3.46;100.00;85393.47;5034975;28;20202;-88
2021/03/10 02:58:59;;;;;;;20.43;14.60;;;;;;;3.51;100.00;85376.78;5034793;28;20199;-90
2021/03/10 03:01:36;;;;;;;18.73;15.43;;;;;;;3.45;100.00;85404.94;5035041;28;20202;-88
2021/03/10 03:04:03;;;;;;;22.87;16.90;;;;;;;3.48;100.00;85414.56;5035094;28;20191;-88
2021/03/10 03:06:31;;;;;;;17.67;14.03;;;;;;;3.45;100.00;85425.69;5035016;28;20274;-89
2021/03/10 03:08:58;;;;;;;22.87;15.53;;;;;;;3.42;100.00;85436.81;5035119;28;20186;-89
2021/03/10 03:11:26;;;;;;;19.90;14.27;;;;;;;3.36;100.00;85481.63;5034898;28;20226;-88
2021/03/10 03:13:56;;;;;;;22.20;15.63;;;;;;;3.41;100.00;85466.44;5034840;28;20207;-89
2021/03/10 03:16:31;;;;;;;22.63;16.13;;;;;;;3.40;100.00;85516.06;5034693;28;20591;-89
2021/03/10 03:18:59;;;;;;;18.33;13.20;;;;;;;3.31;100.00;85545.69;5034448;28;20629;-89
2021/03/10 03:21:27;;;;;;;18.73;14.20;;;;;;;3.32;100.00;85510.16;5034600;28;20226;-87
2021/03/10 03:23:55;;;;;;;19.20;14.40;;;;;;;3.28;100.00;85523.13;5034375;28;20278;-88
2021/03/10 03:26:22;;;;;;;22.43;14.93;;;;;;;3.32;100.00;85432.44;5034448;28;20230;-88
2021/03/10 03:28:50;;;;;;;20.93;14.47;;;;;;;3.33;100.00;85433.91;5034487;28;20241;-89
2021/03/10 03:31:18;;;;;;;20.40;15.37;;;;;;;3.30;100.00;85468.34;5034528;28;20301;-89
2021/03/10 03:33:45;;;;;;;24.43;15.23;;;;;;;3.28;100.00;85483.53;5034458;28;20599;-89
2021/03/10 03:36:13;;;;;;;20.53;14.43;;;;;;;3.39;100.00;85457.56;5031145;28;20228;-86
2021/03/10 03:38:41;;;;;;;20.83;16.17;;;;;;;3.46;100.00;85463.41;5033707;28;20636;-88
2021/03/10 03:41:08;;;;;;;19.97;15.77;;;;;;;3.34;100.00;85547.53;5033839;28;20194;-86
2021/03/10 03:43:35;;;;;;;18.47;15.87;;;;;;;3.37;100.00;85589.34;5033515;28;20195;-87
2021/03/10 03:46:05;;;;;;;21.37;14.73;;;;;;;3.32;100.00;85629.31;5033847;28;20258;-87
2021/03/10 03:48:32;;;;;;;18.77;14.20;;;;;;;3.29;100.00;85668.94;5033833;28;20194;-86
2021/03/10 03:50:58;;;;;;;28.23;16.20;;;;;;;3.33;100.00;85680.06;5033377;28;20199;-86
2021/03/10 03:53:26;;;;;;;19.90;14.17;;;;;;;3.39;100.00;85695.94;5032897;28;20312;-86
2021/03/10 03:55:56;;;;;;;17.87;15.80;;;;;;;3.31;100.00;85767.78;5033148;28;20210;-85
2021/03/10 03:58:23;;;;;;;20.27;16.20;;;;;;;3.33;100.00;85788.88;5032796;28;20198;-84
2021/03/10 04:00:49;;;;;;;22.40;15.97;;;;;;;3.37;100.00;85809.59;5032912;28;20206;-86
2021/03/10 04:03:16;;;;;;;22.47;14.77;;;;;;;3.32;100.00;85875.47;5033349;28;20767;-88
2021/03/10 04:05:43;;;;;;;21.43;15.33;;;;;;;3.41;100.00;85881.03;5033638;28;20194;-88
2021/03/10 04:08:10;;;;;;;19.50;14.60;;;;;;;3.37;100.00;85911.41;5033739;28;20206;-88
2021/03/10 04:10:39;;;;;;;21.27;16.37;;;;;;;3.35;100.00;85929.16;5033664;28;20210;-88
2021/03/10 04:13:07;;;;;;;17.67;14.47;;;;;;;3.34;100.00;85959.50;5033410;28;20269;-88
2021/03/10 04:15:35;;;;;;;21.23;15.00;;;;;;;3.28;100.00;86004.28;5033479;28;20241;-89
2021/03/10 04:18:03;;;;;;;19.90;15.67;;;;;;;3.41;100.00;85979.50;5033397;28;20679;-89
2021/03/10 04:20:30;;;;;;;24.30;15.40;;;;;;;3.47;100.00;85993.59;5033309;28;20234;-89
2021/03/10 04:22:56;;;;;;;16.47;14.17;;;;;;;3.44;100.00;86040.25;5033477;28;20203;-89
2021/03/10 04:25:23;;;;;;;20.40;15.83;;;;;;;3.40;100.00;86117.97;5033800;28;20548;-89
2021/03/10 04:27:51;;;;;;;22.80;15.93;;;;;;;3.47;100.00;86154.28;5033273;28;20238;-89
2021/03/10 04:30:19;;;;;;;24.27;15.97;;;;;;;3.44;100.00;86191.31;5033474;28;20648;-88
2021/03/10 04:32:46;;;;;;;17.63;15.73;;;;;;;3.37;100.00;86253.47;5032541;28;20222;-89
2021/03/10 04:35:14;;;;;;;21.93;18.83;;;;;;;3.38;100.00;86291.22;5033005;28;20195;-88
2021/03/10 04:37:41;;;;;;;18.80;14.27;;;;;;;3.40;100.00;86329.75;5033352;28;20206;-89
2021/03/10 04:40:10;;;;;;;19.73;15.00;;;;;;;3.35;100.00;86387.81;5032884;28;20576;-89
2021/03/10 04:42:36;;;;;;;19.83;14.60;;;;;;;3.39;100.00;86400.81;5033105;28;20194;-89
2021/03/10 04:45:07;;;;;;;22.93;16.00;;;;;;;3.36;100.00;86463.72;5032920;28;20202;-89
2021/03/10 04:47:35;;;;;;;17.57;15.23;;;;;;;3.38;100.00;86493.38;5033079;28;20194;-89
2021/03/10 04:50:02;;;;;;;21.53;15.60;;;;;;;3.39;100.00;86554.47;5033165;28;20289;-89
2021/03/10 04:52:29;;;;;;;20.07;15.73;;;;;;;3.39;100.00;86593.34;5032894;28;20222;-89
2021/03/10 04:54:56;;;;;;;22.87;15.93;;;;;;;3.40;100.00;86633.75;5032646;28;20255;-89
2021/03/10 04:57:23;;;;;;;27.43;18.57;;;;;;;3.41;100.00;86652.63;5033231;28;20199;-89
2021/03/10 04:59:50;;;;;;;17.67;14.67;;;;;;;3.42;100.00;86667.81;5033019;28;20535;-89
2021/03/10 05:02:18;;;;;;;19.80;15.23;;;;;;;3.32;100.00;86728.03;5032592;28;20233;-89
2021/03/10 05:04:45;;;;;;;16.90;14.07;;;;;;;3.30;100.00;86767.25;5033025;28;20256;-88
2021/03/10 05:07:12;;;;;;;17.60;14.90;;;;;;;3.38;100.00;86780.31;5033153;28;20206;-89
2021/03/10 05:09:38;;;;;;;17.57;13.90;;;;;;;3.38;100.00;86817.34;5032707;28;20693;-89
2021/03/10 05:12:06;;;;;;;18.47;14.47;;;;;;;3.37;100.00;86854.00;5030456;28;20222;-94
2021/03/10 05:14:33;;;;;;;26.10;16.43;;;;;;;3.31;100.00;86895.72;5031959;28;20202;-89
2021/03/10 05:17:00;;;;;;;24.23;19.23;;;;;;;3.39;100.00;86901.78;5032455;28;20199;-89
2021/03/10 05:19:28;;;;;;;21.10;15.77;;;;;;;3.44;100.00;86911.88;5032877;28;20682;-89
2021/03/10 05:21:55;;;;;;;19.27;14.73;;;;;;;3.40;100.00;86959.59;5032815;28;20206;-89
2021/03/10 05:24:22;;;;;;;20.63;13.33;;;;;;;3.44;100.00;86966.31;5032557;28;20757;-89
2021/03/10 05:26:49;;;;;;;17.97;15.03;;;;;;;3.44;100.00;87005.22;5032468;28;20295;-89
2021/03/10 05:29:16;;;;;;;18.23;14.53;;;;;;;3.38;100.00;87044.69;5031707;28;20202;-89
2021/03/10 05:31:42;;;;;;;19.50;14.13;;;;;;;3.39;100.00;87074.72;5032431;28;20234;-89
2021/03/10 05:34:09;;;;;;;16.83;15.00;;;;;;;3.45;100.00;87079.28;5032439;28;20259;-89
2021/03/10 05:36:37;;;;;;;16.67;13.67;;;;;;;3.46;100.00;87109.28;5032679;28;20214;-89
2021/03/10 05:39:05;;;;;;;17.57;13.00;;;;;;;3.46;100.00;87135.22;5032919;28;20203;-89
2021/03/10 05:41:32;;;;;;;17.67;14.10;;;;;;;3.32;100.00;87200.47;5032292;28;20253;-88
2021/03/10 05:43:59;;;;;;;31.13;15.33;;;;;;;3.37;100.00;87228.00;5036391;28;20700;-90
2021/03/10 05:46:30;;;;;;;22.80;14.70;;;;;;;3.19;100.00;87296.81;5040388;28;20289;-88
2021/03/10 05:49:00;;;;;;;23.23;14.57;;;;;;;3.24;100.00;87296.56;5044543;28;20202;-90
2021/03/10 05:51:29;;;;;;;21.13;16.23;;;;;;;3.37;100.00;87300.56;5034941;28;20614;-89
2021/03/10 05:54:00;;;;;;;20.10;15.33;;;;;;;3.39;100.00;87326.91;5015640;28;20673;-88
2021/03/10 05:56:29;;;;;;;17.70;12.23;;;;;;;3.38;100.00;87368.72;5015738;28;20254;-90
2021/03/10 05:58:57;;;;;;;23.30;14.90;;;;;;;3.33;100.00;87408.59;5016126;28;20209;-90
2021/03/10 06:01:24;;;;;;;20.33;14.70;;;;;;;3.31;100.00;87439.28;5016341;28;20666;-89
2021/03/10 06:03:58;;;;;;;16.30;13.07;;;;;;;3.36;100.00;87441.66;5016428;28;20633;-89
2021/03/10 06:06:26;;;;;;;15.70;13.10;;;;;;;3.34;100.00;87456.75;5015456;28;20199;-89
2021/03/10 06:08:53;;;;;;;21.13;15.17;;;;;;;3.37;100.00;87491.66;5015879;28;20290;-88
2021/03/10 06:11:25;;;;;;;21.00;14.17;;;;;;;3.47;100.00;87478.97;5016053;28;20192;-88
2021/03/10 06:13:53;;;;;;;17.73;13.07;;;;;;;3.38;100.00;87535.38;5015629;28;20224;-88
2021/03/10 06:16:22;;;;;;;12.67;9.47;;;;;;;3.32;100.00;87572.97;5015683;28;20755;-88
2021/03/10 06:18:49;;;;;;;16.40;13.13;;;;;;;3.34;100.00;87581.19;5015646;28;20211;-88
2021/03/10 06:21:17;;;;;;;19.00;13.27;;;;;;;3.36;100.00;87573.84;5016061;28;20199;-89
2021/03/10 06:23:56;;;;;;;13.27;11.87;;;;;;;3.42;100.00;87556.97;5015747;28;20200;-88
2021/03/10 06:26:25;;;;;;;15.57;13.57;;;;;;;3.40;100.00;87572.13;5015693;28;20278;-88
2021/03/10 06:28:53;;;;;;;17.10;14.33;;;;;;;3.52;100.00;87535.75;5016006;28;20675;-90
2021/03/10 06:31:22;;;;;;;19.10;15.03;;;;;;;3.63;100.00;87522.31;5015846;28;20587;-88
2021/03/10 06:34:03;;;;;;;17.37;14.33;;;;;;;3.56;100.00;87561.78;5015471;28;20238;-89
2021/03/10 06:36:32;;;;;;;24.83;20.37;;;;;;;3.61;100.00;87569.34;5015814;28;20346;-89
2021/03/10 06:38:59;;;;;;;18.37;14.13;;;;;;;3.60;100.00;87590.41;5015590;28;20204;-89
2021/03/10 06:41:34;;;;;;;20.93;14.50;;;;;;;3.65;100.00;87600.56;5015464;28;20201;-89
2021/03/10 06:44:02;;;;;;;23.17;14.60;;;;;;;3.58;100.00;87640.78;5015538;28;20199;-89
2021/03/10 06:46:29;;;;;;;21.40;14.97;;;;;;;3.70;100.00;87639.22;5015154;28;20708;-89
2021/03/10 06:49:01;;;;;;;19.13;13.43;;;;;;;3.70;100.00;87670.34;5016065;28;20211;-89
2021/03/10 06:51:29;;;;;;;24.50;16.87;;;;;;;3.66;100.00;87731.75;5015340;28;20285;-89
2021/03/10 06:53:56;;;;;;;18.83;16.40;;;;;;;3.64;100.00;87768.41;5014731;28;20676;-89
2021/03/10 06:56:25;;;;;;;22.20;15.73;;;;;;;3.66;100.00;87794.00;5015306;28;20202;-88
2021/03/10 06:59:04;;;;;;;22.00;15.13;;;;;;;3.67;100.00;87811.06;5015680;28;20230;-88
2021/03/10 07:01:39;;;;;;;18.70;15.20;;;;;;;3.76;100.00;87809.88;5015242;28;20192;-89
2021/03/10 07:04:07;;;;;;;17.70;14.60;;;;;;;3.67;100.00;87855.16;5015539;28;20664;-89
2021/03/10 07:06:34;;;;;;;21.97;14.27;;;;;;;3.67;100.00;87884.47;5015380;28;20211;-89
2021/03/10 07:09:05;;;;;;;23.93;16.10;;;;;;;3.74;100.00;87878.72;5015279;28;20207;-89
2021/03/10 07:11:32;;;;;;;22.07;17.40;;;;;;;3.86;100.00;87868.38;5015691;28;20195;-88
2021/03/10 07:14:00;;;;;;;23.37;15.47;;;;;;;3.77;100.00;87909.22;5015663;28;20329;-89
2021/03/10 07:16:32;;;;;;;19.47;13.57;;;;;;;3.81;100.00;87934.22;5015321;28;20668;-89
2021/03/10 07:19:00;;;;;;;25.27;18.27;;;;;;;3.84;100.00;87952.78;5015077;28;20187;-87
2021/03/10 07:21:31;;;;;;;19.97;16.17;;;;;;;3.90;100.00;87970.44;5015045;28;20198;-89
2021/03/10 07:24:00;;;;;;;20.73;15.53;;;;;;;4.03;100.00;87947.84;5015271;28;20287;-89
2021/03/10 07:26:27;;;;;;;18.80;14.43;;;;;;;3.97;100.00;87991.41;5014469;28;20779;-89
2021/03/10 07:29:02;;;;;;;23.87;16.03;;;;;;;3.92;100.00;88019.44;5014727;28;20203;-89
2021/03/10 07:31:29;;;;;;;16.67;14.43;;;;;;;4.02;100.00;88032.00;5014791;28;20273;-89
2021/03/10 07:33:57;;;;;;;17.70;14.67;;;;;;;3.99;100.00;88056.75;5014480;28;20227;-90
2021/03/10 07:36:38;;;;;;;18.87;14.63;;;;;;;4.00;100.00;88084.22;5014694;28;20664;-89
2021/03/10 07:39:07;;;;;;;23.77;17.70;;;;;;;4.04;100.00;88123.25;5014510;28;20196;-89
2021/03/10 07:41:36;;;;;;;22.37;14.90;;;;;;;4.05;100.00;88143.72;5014584;28;20195;-90
2021/03/10 07:44:14;;;;;;;16.67;15.03;;;;;;;4.02;100.00;88169.56;5015132;28;20296;-89
2021/03/10 07:46:42;;;;;;;22.60;16.43;;;;;;;4.08;100.00;88159.72;5014468;28;20274;-90
2021/03/10 07:49:19;;;;;;;20.53;14.87;;;;;;;4.11;100.00;88216.19;5014252;28;20207;-90
2021/03/10 07:51:46;;;;;;;20.50;15.33;;;;;;;4.13;100.00;88233.00;5014236;28;20187;-89
2021/03/10 07:54:23;;;;;;;22.67;15.80;;;;;;;4.17;100.00;88240.91;5014056;28;20227;-89
2021/03/10 07:56:51;;;;;;;22.10;16.37;;;;;;;4.25;100.00;88240.81;5014081;28;20237;-90
2021/03/10 07:59:19;;;;;;;27.77;17.40;;;;;;;4.25;100.00;88266.03;5014132;28;20200;-89
2021/03/10 08:01:47;;;;;;;23.83;17.20;;;;;;;4.23;100.00;88297.53;5013931;28;20691;-90
2021/03/10 08:04:16;;;;;;;22.73;15.60;;;;;;;4.28;100.00;88317.34;5013967;28;20206;-90
2021/03/10 08:06:45;;;;;;;18.93;15.07;;;;;;;4.28;100.00;88345.91;5013054;28;20219;-90
2021/03/10 08:09:13;;;;;;;23.00;15.70;;;;;;;4.19;100.00;88384.13;5013851;28;20303;-89
2021/03/10 08:11:43;;;;;;;24.17;16.20;;;;;;;4.25;100.00;88377.69;5014162;28;20676;-90
2021/03/10 08:14:11;;;;;;;22.07;15.27;;;;;;;4.25;100.00;88391.44;5014225;28;20250;-90
2021/03/10 08:16:42;;;;;;;22.87;14.63;;;;;;;4.28;100.00;88416.00;5014057;28;20226;-90
2021/03/10 08:19:11;;;;;;;26.93;18.27;;;;;;;4.24;100.00;88438.50;5013766;28;20188;-90
2021/03/10 08:21:51;;;;;;;24.27;17.73;;;;;;;4.32;100.00;88416.91;5013687;28;20679;-90
2021/03/10 08:24:19;;;;;;;25.50;18.50;;;;;;;4.41;100.00;88409.84;5013911;28;20741;-89
2021/03/10 08:26:50;;;;;;;27.03;18.20;;;;;;;4.48;100.00;88397.13;5013449;28;20317;-90
2021/03/10 08:29:18;;;;;;;23.57;16.93;;;;;;;4.64;100.00;88371.38;5013618;28;20188;-89
2021/03/10 08:31:48;;;;;;;20.20;16.87;;;;;;;4.72;100.00;88372.38;5013422;28;20199;-90
2021/03/10 08:34:16;;;;;;;22.47;16.43;;;;;;;4.68;100.00;88413.81;5013484;28;20223;-89
2021/03/10 08:36:44;;;;;;;23.60;16.13;;;;;;;4.81;100.00;88408.69;5013729;28;20229;-90
2021/03/10 08:39:15;;;;;;;23.47;17.07;;;;;;;5.05;100.00;88363.88;5013409;28;20206;-90
2021/03/10 08:41:49;;;;;;;27.53;18.67;;;;;;;5.24;100.00;88351.16;5013638;28;20191;-90
2021/03/10 08:44:19;;;;;;;25.00;16.60;;;;;;;5.19;100.00;88396.31;5013499;28;20196;-90
2021/03/10 08:46:47;;;;;;;29.10;17.23;;;;;;;5.06;100.00;88454.56;5013656;28;20206;-90
2021/03/10 08:49:20;;;;;;;27.83;19.50;;;;;;;5.05;100.00;88483.47;5013519;28;20554;-89
2021/03/10 08:51:47;;;;;;;23.73;16.63;;;;;;;4.97;100.00;88527.41;5013160;28;20285;-90
2021/03/10 08:54:17;;;;;;;19.80;16.50;;;;;;;4.94;100.00;88559.22;5012826;28;20607;-90
2021/03/10 08:56:48;;;;;;;21.50;17.00;;;;;;;5.07;100.00;88551.53;5013091;28;20218;-90
2021/03/10 08:59:15;;;;;;;23.93;16.53;;;;;;;5.06;100.00;88579.38;5013323;28;20214;-90
2021/03/10 09:01:51;;;;;;;25.23;19.20;;;;;;;5.11;100.00;88576.56;5013059;28;20249;-89
2021/03/10 09:04:23;;;;;;;19.77;17.33;;;;;;;5.23;100.00;88565.50;5013030;28;20184;-89
2021/03/10 09:06:50;;;;;;;20.07;16.60;;;;;;;5.24;100.00;88590.44;5012979;28;20290;-90
2021/03/10 09:09:19;;;;;;;25.40;17.50;;;;;;;5.18;100.00;88631.44;5013500;28;20274;-89
2021/03/10 09:11:47;;;;;;;18.07;15.63;;;;;;;5.32;100.00;88635.69;5013454;28;20200;-90
2021/03/10 09:14:14;;;;;;;20.60;15.57;;;;;;;5.19;100.00;88690.19;5013002;28;20226;-89
2021/03/10 09:16:52;;;;;;;18.17;14.20;;;;;;;5.39;100.00;88654.16;5012964;28;20664;-89
2021/03/10 09:19:31;;;;;;;18.23;14.90;;;;;;;5.51;100.00;88654.28;5016994;28;20274;-90
2021/03/10 09:22:18;;;;;;;20.77;17.10;;;;;;;5.48;100.00;88689.47;5017291;28;20621;-90
2021/03/10 09:24:51;;;;;;;18.10;15.07;;;;;;;5.58;100.00;88709.19;5016915;28;20218;-89
2021/03/10 09:27:20;;;;;;;20.83;14.73;;;;;;;5.57;100.00;88751.88;5016789;28;20288;-89
2021/03/10 09:29:47;;;;;;;17.67;13.43;;;;;;;5.65;100.00;88750.34;5016869;28;20195;-89
2021/03/10 09:32:14;;;;;;;14.93;13.17;;;;;;;5.68;100.00;88796.53;5016983;28;20199;-90
2021/03/10 09:34:41;;;;;;;22.80;15.80;;;;;;;5.75;100.00;88811.69;5017080;28;20282;-90
2021/03/10 09:37:09;;;;;;;26.40;19.27;;;;;;;5.85;100.00;88822.50;5016690;28;20265;-90
2021/03/10 09:39:46;;;;;;;21.43;14.97;;;;;;;5.78;100.00;88863.88;5016933;28;20218;-90
2021/03/10 09:42:15;;;;;;;17.20;13.90;;;;;;;5.84;100.00;88877.50;5016735;28;20282;-90
2021/03/10 09:44:47;;;;;;;16.73;14.00;;;;;;;5.87;100.00;88931.56;5016597;28;20687;-89
2021/03/10 09:47:15;;;;;;;15.60;12.37;;;;;;;5.87;100.00;88960.97;5016776;28;20192;-89
2021/03/10 09:49:53;;;;;;;18.83;13.53;;;;;;;5.92;100.00;88984.28;5016765;28;20195;-90
2021/03/10 09:52:32;;;;;;;14.43;12.83;;;;;;;5.88;100.00;89014.56;5016363;28;20207;-90
2021/03/10 09:54:59;;;;;;;18.63;13.47;;;;;;;5.96;100.00;89020.91;5016769;28;20184;-90
2021/03/10 09:57:29;;;;;;;22.20;13.57;;;;;;;6.11;100.00;89006.63;5016310;28;20230;-90
2021/03/10 09:59:57;;;;;;;17.60;12.83;;;;;;;6.03;100.00;89057.66;5016342;28;20206;-89
2021/03/10 10:02:25;;;;;;;16.47;14.17;;;;;;;6.19;100.00;89057.94;5016566;28;20723;-89
2021/03/10 10:05:04;;;;;;;16.87;13.37;;;;;;;6.28;100.00;89084.75;5016222;28;20287;-90
2021/03/10 10:07:31;;;;;;;17.67;12.87;;;;;;;5.98;100.00;89180.19;5016277;28;20191;-90
2021/03/10 10:09:58;;;;;;;18.23;13.17;;;;;;;6.06;100.00;89187.28;5016618;28;20286;-90
2021/03/10 10:12:26;;;;;;;15.27;12.67;;;;;;;5.86;100.00;89266.69;5015971;28;20234;-90
2021/03/10 10:14:54;;;;;;;17.37;13.30;;;;;;;6.12;100.00;89219.13;5016032;28;20203;-90
2021/03/10 10:17:20;;;;;;;18.80;13.63;;;;;;;6.17;100.00;89235.41;5016245;28;20199;-90
2021/03/10 10:19:47;;;;;;;27.57;17.10;;;;;;;6.07;100.00;89313.06;5015888;28;20206;-89
2021/03/10 10:22:14;;;;;;;47.63;27.40;;;;;;;6.02;100.00;89342.59;5015980;28;20191;-90
2021/03/10 10:24:41;;;;;;;42.83;28.33;;;;;;;6.07;100.00;89370.38;5015858;28;20699;-89
2021/03/10 10:27:08;;;;;;;17.70;13.40;;;;;;;6.13;100.00;89397.78;5015840;28;21116;-88
2021/03/10 10:29:35;;;;;;;33.23;24.40;;;;;;;6.29;100.00;89398.94;5015518;28;20199;-88
2021/03/10 10:32:03;;;;;;;19.10;16.73;;;;;;;6.34;100.00;89404.03;5016037;28;20244;-89
2021/03/10 10:34:30;;;;;;;17.20;13.50;;;;;;;6.35;100.00;89444.66;5016237;28;20716;-88
2021/03/10 10:36:57;;;;;;;23.40;18.77;;;;;;;6.38;100.00;89475.34;5016228;28;20230;-87
2021/03/10 10:39:24;;;;;;;36.93;29.10;;;;;;;6.32;100.00;89528.66;5016378;28;20258;-88
2021/03/10 10:41:51;;;;;;;22.57;19.47;;;;;;;6.50;100.00;89507.91;5016424;28;20208;-89
2021/03/10 10:44:17;;;;;;;17.13;14.00;;;;;;;6.51;100.00;89535.50;5015909;28;20695;-89
2021/03/10 10:46:44;;;;;;;21.93;16.93;;;;;;;6.55;100.00;89591.19;5015757;28;20234;-89
2021/03/10 10:49:12;;;;;;;21.20;14.73;;;;;;;6.43;100.00;89642.00;5015868;28;20235;-89
2021/03/10 10:51:39;;;;;;;19.30;14.90;;;;;;;6.46;100.00;89664.13;5015678;28;20669;-89
2021/03/10 10:54:06;;;;;;;15.67;13.63;;;;;;;6.59;100.00;89652.09;5015469;28;20314;-90
2021/03/10 10:56:33;;;;;;;17.20;12.87;;;;;;;6.66;100.00;89679.31;5015548;28;20203;-90
2021/03/10 10:59:00;;;;;;;16.00;13.50;;;;;;;6.64;100.00;89732.81;4998116;28;20246;-90
2021/03/10 11:01:27;;;;;;;20.63;16.80;;;;;;;6.73;100.00;89756.38;5015690;28;20187;-90
2021/03/10 11:03:54;;;;;;;21.30;14.83;;;;;;;6.66;100.00;89809.69;5015385;28;20260;-90
2021/03/10 11:06:22;;;;;;;18.90;13.47;;;;;;;6.83;100.00;89816.91;5015238;28;20286;-90
2021/03/10 11:08:49;;;;;;;23.77;17.57;;;;;;;7.12;100.00;89811.28;5015204;28;20669;-90
2021/03/10 11:11:16;;;;;;;28.40;19.67;;;;;;;7.06;100.00;89898.56;5014938;28;20231;-90
2021/03/10 11:13:44;;;;;;;26.33;18.93;;;;;;;6.98;100.00;89979.38;5014836;28;20223;-90
2021/03/10 11:16:11;;;;;;;17.70;13.10;;;;;;;6.75;100.00;90041.84;5014789;28;20334;-90
2021/03/10 11:18:38;;;;;;;13.87;12.47;;;;;;;6.73;100.00;90057.03;5014989;28;20203;-90
2021/03/10 11:21:05;;;;;;;15.87;12.07;;;;;;;6.53;100.00;90091.25;5015068;28;20203;-90
2021/03/10 11:23:33;;;;;;;14.73;12.70;;;;;;;6.42;100.00;90112.28;5014771;28;20234;-90
2021/03/10 11:26:01;;;;;;;18.63;13.47;;;;;;;6.55;100.00;90069.06;5014571;28;20250;-90